createdAt,value
2022-11-15T00:02:01.414Z,101179.25
2022-11-15T00:05:22.771Z,101187.28
2022-11-15T00:08:43.448Z,101190.91
2022-11-15T00:12:04.214Z,101186.19
2022-11-15T00:15:25.423Z,101173.50
2022-11-15T00:18:50.293Z,101170.28
2022-11-15T00:22:11.959Z,101153.97
2022-11-15T00:25:33.077Z,101163.56
2022-11-15T00:28:55.464Z,101173.47
2022-11-15T00:32:17.270Z,101166.03
2022-11-15T00:35:38.097Z,101161.81
2022-11-15T00:38:59.853Z,101165.16
2022-11-15T00:42:20.810Z,101158.09
2022-11-15T00:45:42.646Z,101152.84
2022-11-15T00:49:03.946Z,101151.09
2022-11-15T00:52:25.661Z,101162.22
2022-11-15T00:55:47.444Z,101117.94
2022-11-15T00:59:08.161Z,101155.09
2022-11-15T01:02:29.156Z,101116.06
2022-11-15T01:05:50.201Z,101135.47
2022-11-15T01:09:11.426Z,101122.41
2022-11-15T01:12:32.956Z,101127.94
2022-11-15T01:15:54.679Z,101109.75
2022-11-15T01:19:15.409Z,101113.28
2022-11-15T01:22:36.432Z,101110.91
2022-11-15T01:26:01.416Z,101123.00
2022-11-15T01:29:22.709Z,101109.91
2022-11-15T01:32:43.760Z,101123.03
2022-11-15T01:36:06.377Z,101114.19
2022-11-15T01:39:27.718Z,101103.41
2022-11-15T01:42:48.424Z,101101.19
2022-11-15T01:46:25.346Z,101112.53
2022-11-15T01:50:08.036Z,101110.22
2022-11-15T01:53:31.209Z,101098.88
2022-11-15T01:56:56.260Z,101096.16
2022-11-15T02:00:18.177Z,101095.88
2022-11-15T02:03:51.497Z,101076.47
2022-11-15T02:07:16.164Z,101094.22
2022-11-15T02:10:37.385Z,101092.69
2022-11-15T02:13:59.602Z,101089.44
2022-11-15T02:17:32.398Z,101105.47
2022-11-15T02:21:33.669Z,101090.97
2022-11-15T02:25:15.443Z,101095.94
2022-11-15T02:28:57.274Z,101092.03
2022-11-15T02:32:37.769Z,101096.59
2022-11-15T02:36:01.335Z,101079.31
2022-11-15T02:39:32.772Z,101084.78
2022-11-15T02:43:28.132Z,101082.44
2022-11-15T02:47:16.308Z,101073.94
2022-11-15T02:50:38.358Z,101074.44
2022-11-15T02:53:59.810Z,101078.59
2022-11-15T02:57:26.490Z,101083.13
2022-11-15T03:01:00.377Z,101086.56
2022-11-15T03:04:54.955Z,101088.91
2022-11-15T03:08:27.476Z,101074.81
2022-11-15T03:11:52.634Z,101068.56
2022-11-15T03:15:23.840Z,101071.44
2022-11-15T03:18:49.109Z,101066.88
2022-11-15T03:22:12.999Z,101062.84
2022-11-15T03:25:36.032Z,101077.84
2022-11-15T03:29:00.726Z,101062.59
2022-11-15T03:32:31.167Z,101070.81
2022-11-15T03:35:53.113Z,101070.41
2022-11-15T03:39:19.181Z,101072.03
2022-11-15T03:43:04.306Z,101064.41
2022-11-15T03:46:55.030Z,101056.53
2022-11-15T03:50:22.475Z,101049.63
2022-11-15T03:53:43.858Z,101046.81
2022-11-15T03:57:04.688Z,101057.63
2022-11-15T04:00:32.196Z,101058.47
2022-11-15T04:03:52.906Z,101047.91
2022-11-15T04:07:13.887Z,101051.84
2022-11-15T04:10:36.006Z,101044.63
2022-11-15T04:13:56.580Z,101039.66
2022-11-15T04:17:17.312Z,101050.84
2022-11-15T04:21:03.936Z,101042.19
2022-11-15T04:24:24.925Z,101021.19
2022-11-15T04:27:46.025Z,101027.31
2022-11-15T04:31:07.951Z,101034.19
2022-11-15T04:34:29.355Z,101017.44
2022-11-15T04:37:50.423Z,101029.00
2022-11-15T04:41:11.083Z,101023.94
2022-11-15T04:44:31.791Z,101025.31
2022-11-15T04:47:52.437Z,101028.81
2022-11-15T04:51:14.459Z,101028.31
2022-11-15T04:54:35.678Z,100985.94
2022-11-15T04:58:03.320Z,101010.41
2022-11-15T05:01:24.672Z,101012.25
2022-11-15T05:04:45.653Z,101024.38
2022-11-15T05:08:06.459Z,101016.03
2022-11-15T05:11:28.308Z,100998.84
2022-11-15T05:14:50.517Z,101017.78
2022-11-15T05:18:13.175Z,101016.16
2022-11-15T05:21:35.635Z,101007.69
2022-11-15T05:24:56.450Z,100992.03
2022-11-15T05:28:17.249Z,100991.88
2022-11-15T05:31:41.670Z,101013.13
2022-11-15T05:35:03.598Z,100995.22
2022-11-15T05:38:24.664Z,101011.44
2022-11-15T05:41:51.999Z,101013.13
2022-11-15T05:45:13.580Z,100999.44
2022-11-15T05:48:38.526Z,101013.38
2022-11-15T05:51:59.345Z,101008.38
2022-11-15T05:55:20.149Z,101020.06
2022-11-15T05:58:41.407Z,101007.22
2022-11-15T06:02:02.366Z,101001.50
2022-11-15T06:05:23.714Z,101009.88
2022-11-15T06:08:44.795Z,101003.16
2022-11-15T06:12:06.525Z,100985.06
2022-11-15T06:15:28.126Z,100994.22
2022-11-15T06:18:49.215Z,101006.34
2022-11-15T06:22:10.699Z,101014.31
2022-11-15T06:25:32.142Z,101007.91
2022-11-15T06:28:53.266Z,100994.44
2022-11-15T06:32:14.191Z,101007.00
2022-11-15T06:35:36.414Z,101007.22
2022-11-15T06:38:57.926Z,101014.06
2022-11-15T06:42:19.211Z,101015.28
2022-11-15T06:45:40.860Z,101001.28
2022-11-15T06:49:05.267Z,101008.16
2022-11-15T06:52:33.566Z,100980.00
2022-11-15T06:55:55.595Z,100980.31
2022-11-15T06:59:17.283Z,100983.44
2022-11-15T07:02:39.003Z,100976.09
2022-11-15T07:06:06.839Z,100968.00
2022-11-15T07:09:29.541Z,100984.22
2022-11-15T07:12:51.878Z,100969.31
2022-11-15T07:16:13.118Z,100965.91
2022-11-15T07:19:34.390Z,100987.25
2022-11-15T07:23:05.422Z,100955.06
2022-11-15T07:26:26.217Z,100979.81
2022-11-15T07:29:47.453Z,100981.16
2022-11-15T07:33:08.194Z,100973.34
2022-11-15T07:36:29.277Z,100984.59
2022-11-15T07:39:50.310Z,100965.47
2022-11-15T07:43:11.360Z,100977.56
2022-11-15T07:46:32.696Z,100978.06
2022-11-15T07:49:53.717Z,100977.03
2022-11-15T07:53:14.567Z,100991.94
2022-11-15T07:56:35.531Z,100992.75
2022-11-15T07:59:56.943Z,100980.41
2022-11-15T08:03:18.753Z,100992.69
2022-11-15T08:06:39.780Z,100977.50
2022-11-15T08:10:02.254Z,100982.16
2022-11-15T08:13:23.840Z,100970.66
2022-11-15T08:16:45.012Z,100962.75
2022-11-15T08:20:07.223Z,100982.03
2022-11-15T08:23:28.875Z,100978.91
2022-11-15T08:26:50.460Z,100987.28
2022-11-15T08:30:12.236Z,100972.09
2022-11-15T08:33:34.410Z,100950.63
2022-11-15T08:36:55.682Z,100943.31
2022-11-15T08:40:17.382Z,100961.38
2022-11-15T08:43:38.532Z,100963.22
2022-11-15T08:47:00.040Z,100942.22
2022-11-15T08:50:22.237Z,100963.81
2022-11-15T08:53:44.367Z,100967.03
2022-11-15T08:57:05.525Z,100932.41
2022-11-15T09:00:27.739Z,100936.19
2022-11-15T09:03:49.041Z,100928.94
2022-11-15T09:07:14.326Z,100930.50
2022-11-15T09:10:39.925Z,100928.34
2022-11-15T09:14:01.048Z,100924.63
2022-11-15T09:21:03.871Z,100939.88
2022-11-15T09:24:24.778Z,100917.75
2022-11-15T09:27:45.543Z,100921.63
2022-11-15T09:31:07.549Z,100912.56
2022-11-15T09:34:28.835Z,100904.75
2022-11-15T09:37:55.000Z,100906.31
2022-11-15T09:41:41.042Z,100903.09
2022-11-15T09:45:05.810Z,100886.97
2022-11-15T09:48:49.062Z,100876.09
2022-11-15T09:52:09.342Z,100863.84
2022-11-15T09:55:22.398Z,100881.22
2022-11-15T09:58:35.189Z,100877.22
2022-11-15T10:02:01.198Z,100859.94
2022-11-15T10:05:05.005Z,100873.94
2022-11-15T10:08:38.236Z,100873.16
2022-11-15T10:11:42.104Z,100858.09
2022-11-15T10:14:51.616Z,100860.03
2022-11-15T10:18:16.368Z,100839.53
2022-11-15T10:21:21.824Z,100799.31
2022-11-15T10:24:29.626Z,100799.84
2022-11-15T10:27:32.145Z,100806.91
2022-11-15T10:30:38.228Z,100812.50
2022-11-15T10:33:40.570Z,100816.91
2022-11-15T10:36:50.303Z,100781.34
2022-11-15T10:40:20.250Z,100773.53
2022-11-15T10:43:22.788Z,100766.50
2022-11-15T10:46:46.512Z,100767.00
2022-11-15T10:50:00.411Z,100742.16
2022-11-15T10:53:03.908Z,100769.91
2022-11-15T10:56:09.814Z,100763.28
2022-11-15T10:59:18.900Z,100798.19
2022-11-15T11:02:38.009Z,100797.09
2022-11-15T11:05:43.107Z,100781.34
2022-11-15T11:08:59.995Z,100809.97
2022-11-15T11:12:04.513Z,100793.47
2022-11-15T11:15:13.169Z,100810.44
2022-11-15T11:18:28.398Z,100796.97
2022-11-15T11:21:59.110Z,100785.28
2022-11-15T11:25:01.485Z,100787.78
2022-11-15T11:28:07.308Z,100783.28
2022-11-15T11:31:31.404Z,100774.97
2022-11-15T11:34:50.612Z,100773.88
2022-11-15T11:38:07.965Z,100751.66
2022-11-15T11:41:11.436Z,100736.53
2022-11-15T11:44:37.109Z,100727.63
2022-11-15T11:47:49.032Z,100725.94
2022-11-15T11:51:09.102Z,100723.13
2022-11-15T11:54:14.694Z,100719.88
2022-11-15T11:57:37.600Z,100705.09
2022-11-15T12:01:11.496Z,100689.97
2022-11-15T12:04:33.639Z,100687.97
2022-11-15T12:07:37.065Z,100698.31
2022-11-15T12:10:46.870Z,100677.50
2022-11-15T12:13:52.291Z,100680.03
2022-11-15T12:16:54.695Z,100689.88
2022-11-15T12:19:57.908Z,100691.59
2022-11-15T12:23:13.209Z,100691.84
2022-11-15T12:26:22.767Z,100683.75
2022-11-15T12:29:32.970Z,100678.31
2022-11-15T12:32:37.546Z,100671.50
2022-11-15T12:35:42.596Z,100666.56
2022-11-15T12:38:51.244Z,100668.72
2022-11-15T12:41:56.474Z,100658.91
2022-11-15T12:45:00.378Z,100646.31
2022-11-15T12:48:18.116Z,100646.34
2022-11-15T12:51:22.466Z,100660.03
2022-11-15T12:54:25.905Z,100663.28
2022-11-15T12:57:33.534Z,100622.50
2022-11-15T13:00:42.131Z,100661.25
2022-11-15T13:04:09.440Z,100665.06
2022-11-15T13:07:40.788Z,100659.16
2022-11-15T13:10:43.848Z,100655.50
2022-11-15T13:13:46.321Z,100654.38
2022-11-15T13:16:48.833Z,100646.50
2022-11-15T13:20:08.622Z,100630.59
2022-11-15T13:23:16.717Z,100634.66
2022-11-15T13:26:21.708Z,100649.59
2022-11-15T13:29:24.212Z,100647.38
2022-11-15T13:32:26.671Z,100627.84
2022-11-15T13:35:30.892Z,100626.00
2022-11-15T13:38:35.919Z,100628.88
2022-11-15T13:41:51.990Z,100626.69
2022-11-15T13:45:02.424Z,100607.84
2022-11-15T13:48:05.103Z,100621.03
2022-11-15T13:51:30.038Z,100603.41
2022-11-15T13:54:36.892Z,100616.81
2022-11-15T13:57:47.755Z,100619.97
2022-11-15T14:01:01.727Z,100584.59
2022-11-15T14:04:04.514Z,100623.06
2022-11-15T14:07:15.572Z,100600.09
2022-11-15T14:10:32.576Z,100612.28
2022-11-15T14:13:35.206Z,100595.91
2022-11-15T14:16:39.819Z,100592.78
2022-11-15T14:19:42.242Z,100587.19
2022-11-15T14:22:57.494Z,100578.91
2022-11-15T14:26:00.367Z,100583.47
2022-11-15T14:29:25.671Z,100580.31
2022-11-15T14:32:30.433Z,100564.78
2022-11-15T14:35:34.212Z,100555.69
2022-11-15T14:38:36.689Z,100544.34
2022-11-15T14:41:39.127Z,100529.22
2022-11-15T14:44:45.738Z,100526.53
2022-11-15T14:47:48.799Z,100533.81
2022-11-15T14:50:54.399Z,100533.66
2022-11-15T14:53:56.838Z,100519.00
2022-11-15T14:56:59.226Z,100501.66
2022-11-15T15:00:01.687Z,100513.78
2022-11-15T15:03:15.124Z,100492.91
2022-11-15T15:06:18.543Z,100503.81
2022-11-15T15:09:21.108Z,100507.09
2022-11-15T15:12:24.330Z,100503.22
2022-11-15T15:15:32.848Z,100480.31
2022-11-15T15:18:35.344Z,100483.13
2022-11-15T15:21:38.745Z,100502.16
2022-11-15T15:24:41.219Z,100493.63
2022-11-15T15:27:43.613Z,100493.56
2022-11-15T15:30:50.439Z,100496.19
2022-11-15T15:33:52.808Z,100509.09
2022-11-15T15:37:20.370Z,100506.31
2022-11-15T15:40:25.073Z,100509.94
2022-11-15T15:43:27.575Z,100497.06
2022-11-15T15:46:30.022Z,100510.91
2022-11-15T15:49:32.555Z,100509.56
2022-11-15T15:52:34.953Z,100498.97
2022-11-15T15:55:38.080Z,100502.25
2022-11-15T15:58:40.816Z,100501.56
2022-11-15T16:01:43.308Z,100503.84
2022-11-15T16:04:45.802Z,100480.34
2022-11-15T16:07:48.822Z,100501.06
2022-11-15T16:10:51.692Z,100482.84
2022-11-15T16:13:54.091Z,100459.47
2022-11-15T16:16:56.423Z,100459.78
2022-11-15T16:19:58.923Z,100465.72
2022-11-15T16:23:07.508Z,100470.25
2022-11-15T16:26:40.371Z,100473.66
2022-11-15T16:29:43.104Z,100462.94
2022-11-15T16:32:45.557Z,100454.16
2022-11-15T16:35:48.879Z,100472.03
2022-11-15T16:38:51.529Z,100460.19
2022-11-15T16:41:54.137Z,100459.88
2022-11-15T16:44:56.736Z,100459.88
2022-11-15T16:47:59.082Z,100438.56
2022-11-15T16:51:04.957Z,100454.00
2022-11-15T16:54:07.946Z,100449.88
2022-11-15T16:57:11.587Z,100440.50
2022-11-15T17:00:16.673Z,100429.75
2022-11-15T17:03:19.567Z,100428.75
2022-11-15T17:06:23.167Z,100446.78
2022-11-15T17:09:25.778Z,100445.75
2022-11-15T17:12:30.915Z,100427.22
2022-11-15T17:15:33.267Z,100425.13
2022-11-15T17:18:35.921Z,100431.78
2022-11-15T17:21:38.352Z,100412.72
2022-11-15T17:24:40.663Z,100427.34
2022-11-15T17:27:43.162Z,100411.34
2022-11-15T17:30:46.360Z,100426.75
2022-11-15T17:33:48.876Z,100429.53
2022-11-15T17:36:51.243Z,100412.38
2022-11-15T17:39:53.853Z,100422.84
2022-11-15T17:42:57.384Z,100408.84
2022-11-15T17:46:01.842Z,100406.13
2022-11-15T17:49:04.228Z,100393.09
2022-11-15T17:52:07.060Z,100387.41
2022-11-15T17:55:09.978Z,100386.75
2022-11-15T17:58:13.690Z,100392.19
2022-11-15T18:01:25.501Z,100385.50
2022-11-15T18:04:28.791Z,100378.31
2022-11-15T18:07:31.239Z,100378.69
2022-11-15T18:10:34.050Z,100347.34
2022-11-15T18:13:37.552Z,100349.16
2022-11-15T18:16:40.366Z,100371.56
2022-11-15T18:19:42.710Z,100367.94
2022-11-15T18:22:46.100Z,100385.34
2022-11-15T18:25:52.883Z,100392.19
2022-11-15T18:28:57.731Z,100361.84
2022-11-15T18:32:00.474Z,100378.91
2022-11-15T18:35:03.018Z,100363.53
2022-11-15T18:38:05.515Z,100376.09
2022-11-15T18:41:11.220Z,100369.22
2022-11-15T18:44:14.868Z,100364.66
2022-11-15T18:47:17.554Z,100356.09
2022-11-15T18:50:22.002Z,100360.94
2022-11-15T18:53:24.473Z,100360.81
2022-11-15T18:56:28.340Z,100369.50
2022-11-15T18:59:31.080Z,100353.75
2022-11-15T19:02:33.765Z,100364.94
2022-11-15T19:05:36.439Z,100355.69
2022-11-15T19:08:39.831Z,100351.13
2022-11-15T19:11:43.645Z,100348.84
2022-11-15T19:14:46.263Z,100336.88
2022-11-15T19:17:48.990Z,100351.06
2022-11-15T19:20:53.845Z,100342.94
2022-11-15T19:23:57.435Z,100329.88
2022-11-15T19:27:00.045Z,100348.69
2022-11-15T19:30:02.847Z,100336.59
2022-11-15T19:33:05.452Z,100352.28
2022-11-15T19:36:11.997Z,100347.78
2022-11-15T19:39:17.862Z,100329.56
2022-11-15T19:42:20.582Z,100357.22
2022-11-15T19:45:23.308Z,100335.63
2022-11-15T19:48:26.386Z,100322.91
2022-11-15T19:51:30.852Z,100318.75
2022-11-15T19:54:35.084Z,100336.00
2022-11-15T19:57:38.767Z,100331.78
2022-11-15T20:00:42.381Z,100321.06
2022-11-15T20:03:50.139Z,100341.72
2022-11-15T20:06:53.155Z,100330.06
2022-11-15T20:09:55.604Z,100341.88
2022-11-15T20:12:58.014Z,100320.28
2022-11-15T20:16:00.711Z,100322.63
2022-11-15T20:19:04.501Z,100323.56
2022-11-15T20:22:07.569Z,100304.81
2022-11-15T20:25:10.318Z,100301.41
2022-11-15T20:28:18.601Z,100311.50
2022-11-15T20:31:21.814Z,100287.41
2022-11-15T20:34:24.451Z,100275.63
2022-11-15T20:37:26.910Z,100284.47
2022-11-15T20:40:31.306Z,100293.47
2022-11-15T20:43:34.479Z,100273.13
2022-11-15T20:46:36.860Z,100258.63
2022-11-15T20:49:39.241Z,100260.16
2022-11-15T20:52:41.798Z,100271.94
2022-11-15T20:55:52.200Z,100266.72
2022-11-15T20:58:56.420Z,100261.94
2022-11-15T21:01:58.806Z,100260.41
2022-11-15T21:05:01.234Z,100267.81
2022-11-15T21:08:03.658Z,100263.16
2022-11-15T21:11:26.918Z,100275.78
2022-11-15T21:14:29.984Z,100255.56
2022-11-15T21:17:32.311Z,100254.06
2022-11-15T21:20:35.148Z,100270.06
2022-11-15T21:23:37.495Z,100267.09
2022-11-15T21:26:39.933Z,100261.84
2022-11-15T21:29:45.621Z,100228.25
2022-11-15T21:32:48.072Z,100232.97
2022-11-15T21:35:51.497Z,100239.63
2022-11-15T21:38:53.955Z,100234.50
2022-11-15T21:41:56.871Z,100227.25
2022-11-15T21:44:59.289Z,100239.19
2022-11-15T21:48:01.677Z,100192.63
2022-11-15T21:51:06.890Z,100216.47
2022-11-15T21:54:09.297Z,100223.31
2022-11-15T21:57:12.192Z,100210.91
2022-11-15T22:00:34.113Z,100200.34
2022-11-15T22:03:36.737Z,100190.44
2022-11-15T22:06:39.326Z,100185.63
2022-11-15T22:09:41.704Z,100187.13
2022-11-15T22:12:44.084Z,100179.09
2022-11-15T22:15:46.576Z,100164.63
2022-11-15T22:18:49.079Z,100167.63
2022-11-15T22:21:51.649Z,100158.00
2022-11-15T22:24:54.142Z,100163.28
2022-11-15T22:27:56.822Z,100149.59
2022-11-15T22:31:00.231Z,100149.03
2022-11-15T22:34:03.344Z,100147.63
2022-11-15T22:37:19.720Z,100143.47
2022-11-15T22:40:24.195Z,100139.72
2022-11-15T22:43:29.634Z,100143.91
2022-11-15T22:46:32.113Z,100143.28
2022-11-15T22:49:34.550Z,100129.94
2022-11-15T22:52:37.133Z,100116.13
2022-11-15T22:55:40.778Z,100140.66
2022-11-15T22:58:43.226Z,100124.38
2022-11-15T23:01:45.738Z,100135.69
2022-11-15T23:04:49.496Z,100136.94
2022-11-15T23:07:52.637Z,100114.44
2022-11-15T23:11:14.324Z,100129.03
2022-11-15T23:14:36.688Z,100117.41
2022-11-15T23:17:59.016Z,100109.78
2022-11-15T23:21:43.716Z,100087.28
2022-11-15T23:25:06.957Z,100113.53
2022-11-15T23:28:09.321Z,100098.78
2022-11-15T23:31:30.551Z,100101.88
2022-11-15T23:34:36.089Z,100082.47
2022-11-15T23:37:38.648Z,100095.66
2022-11-15T23:40:41.335Z,100087.59
2022-11-15T23:43:43.762Z,100073.00
2022-11-15T23:46:46.226Z,100085.59
2022-11-15T23:49:48.699Z,100085.88
2022-11-15T23:52:51.199Z,100075.66
2022-11-15T23:55:55.343Z,100085.75
2022-11-15T23:58:57.937Z,100082.00
